sensor_id;sensor_type;location;lat;lon;timestamp;temperature;humidity
65040;HTU21D;51606;45.000;38.612;2023-03-19T05:17:55;7.54;80.57
65040;HTU21D;51606;45.000;38.612;2023-03-19T05:20:27;7.56;80.54
65040;HTU21D;51606;45.000;38.612;2023-03-19T05:23:00;7.58;80.59
65040;HTU21D;51606;45.000;38.612;2023-03-19T05:25:37;7.59;80.62
65040;HTU21D;51606;45.000;38.612;2023-03-19T05:28:06;7.59;80.44
65040;HTU21D;51606;45.000;38.612;2023-03-19T05:30:34;7.53;80.49
65040;HTU21D;51606;45.000;38.612;2023-03-19T05:33:14;7.47;80.61
65040;HTU21D;51606;45.000;38.612;2023-03-19T05:35:43;7.44;80.65
65040;HTU21D;51606;45.000;38.612;2023-03-19T05:38:22;7.42;80.75
65040;HTU21D;51606;45.000;38.612;2023-03-19T05:41:05;7.45;80.63
65040;HTU21D;51606;45.000;38.612;2023-03-19T05:43:50;7.44;80.56
65040;HTU21D;51606;45.000;38.612;2023-03-19T05:46:35;7.47;80.54
65040;HTU21D;51606;45.000;38.612;2023-03-19T05:49:01;7.46;80.49
65040;HTU21D;51606;45.000;38.612;2023-03-19T05:51:28;7.44;80.48
65040;HTU21D;51606;45.000;38.612;2023-03-19T05:53:55;7.42;80.48
65040;HTU21D;51606;45.000;38.612;2023-03-19T05:56:29;7.41;80.54
65040;HTU21D;51606;45.000;38.612;2023-03-19T05:59:16;7.43;80.43
65040;HTU21D;51606;45.000;38.612;2023-03-19T06:01:50;7.45;80.44
65040;HTU21D;51606;45.000;38.612;2023-03-19T06:04:16;7.50;80.53
65040;HTU21D;51606;45.000;38.612;2023-03-19T06:06:42;7.58;80.33
65040;HTU21D;51606;45.000;38.612;2023-03-19T06:09:09;7.68;80.36
65040;HTU21D;51606;45.000;38.612;2023-03-19T06:11:39;7.78;80.24
65040;HTU21D;51606;45.000;38.612;2023-03-19T06:14:24;7.87;80.16
65040;HTU21D;51606;45.000;38.612;2023-03-19T06:17:11;7.98;80.08
65040;HTU21D;51606;45.000;38.612;2023-03-19T06:19:37;8.05;80.01
65040;HTU21D;51606;45.000;38.612;2023-03-19T06:22:04;8.11;80.01
65040;HTU21D;51606;45.000;38.612;2023-03-19T06:24:31;8.17;79.98
65040;HTU21D;51606;45.000;38.612;2023-03-19T06:26:57;8.22;79.95
65040;HTU21D;51606;45.000;38.612;2023-03-19T06:29:24;8.30;79.80
65040;HTU21D;51606;45.000;38.612;2023-03-19T06:31:57;8.33;79.85
65040;HTU21D;51606;45.000;38.612;2023-03-19T06:34:39;8.39;79.87
65040;HTU21D;51606;45.000;38.612;2023-03-19T06:37:05;8.47;79.78
65040;HTU21D;51606;45.000;38.612;2023-03-19T06:39:32;8.48;79.69
65040;HTU21D;51606;45.000;38.612;2023-03-19T06:41:59;8.48;79.72
65040;HTU21D;51606;45.000;38.612;2023-03-19T06:44:26;8.47;79.72
65040;HTU21D;51606;45.000;38.612;2023-03-19T06:46:52;8.48;79.82
65040;HTU21D;51606;45.000;38.612;2023-03-19T06:49:20;8.49;79.83
65040;HTU21D;51606;45.000;38.612;2023-03-19T06:51:46;8.56;79.82
65040;HTU21D;51606;45.000;38.612;2023-03-19T06:54:13;8.66;79.73
65040;HTU21D;51606;45.000;38.612;2023-03-19T06:56:39;8.75;79.58
65040;HTU21D;51606;45.000;38.612;2023-03-19T06:59:05;8.80;79.49
65040;HTU21D;51606;45.000;38.612;2023-03-19T07:01:32;8.86;79.43
65040;HTU21D;51606;45.000;38.612;2023-03-19T07:03:58;8.90;79.35
65040;HTU21D;51606;45.000;38.612;2023-03-19T07:06:24;8.89;79.33
65040;HTU21D;51606;45.000;38.612;2023-03-19T07:08:50;8.88;79.43
65040;HTU21D;51606;45.000;38.612;2023-03-19T07:11:17;8.94;79.37
65040;HTU21D;51606;45.000;38.612;2023-03-19T07:13:43;8.97;79.25
65040;HTU21D;51606;45.000;38.612;2023-03-19T07:16:09;9.00;79.27
65040;HTU21D;51606;45.000;38.612;2023-03-19T07:18:36;8.98;79.24
65040;HTU21D;51606;45.000;38.612;2023-03-19T07:21:02;9.03;79.33
65040;HTU21D;51606;45.000;38.612;2023-03-19T07:23:29;9.10;79.21
65040;HTU21D;51606;45.000;38.612;2023-03-19T07:25:55;9.11;79.11
65040;HTU21D;51606;45.000;38.612;2023-03-19T07:28:22;9.15;79.13
65040;HTU21D;51606;45.000;38.612;2023-03-19T07:30:51;9.21;79.06
65040;HTU21D;51606;45.000;38.612;2023-03-19T07:33:19;9.21;78.87
65040;HTU21D;51606;45.000;38.612;2023-03-19T07:35:46;9.19;79.04
65040;HTU21D;51606;45.000;38.612;2023-03-19T07:38:12;9.16;79.08
65040;HTU21D;51606;45.000;38.612;2023-03-19T07:40:39;9.21;79.08
65040;HTU21D;51606;45.000;38.612;2023-03-19T07:43:06;9.23;78.97
65040;HTU21D;51606;45.000;38.612;2023-03-19T07:45:32;9.19;78.98
65040;HTU21D;51606;45.000;38.612;2023-03-19T07:47:58;9.14;79.04
65040;HTU21D;51606;45.000;38.612;2023-03-19T07:50:30;9.19;79.18
65040;HTU21D;51606;45.000;38.612;2023-03-19T07:52:57;9.30;79.01
65040;HTU21D;51606;45.000;38.612;2023-03-19T07:55:23;9.38;78.73
65040;HTU21D;51606;45.000;38.612;2023-03-19T07:57:50;9.41;78.74
65040;HTU21D;51606;45.000;38.612;2023-03-19T08:00:16;9.50;78.70
65040;HTU21D;51606;45.000;38.612;2023-03-19T08:02:43;9.56;78.53
65040;HTU21D;51606;45.000;38.612;2023-03-19T08:05:10;9.57;78.56
65040;HTU21D;51606;45.000;38.612;2023-03-19T08:07:37;9.59;78.60
65040;HTU21D;51606;45.000;38.612;2023-03-19T08:10:04;9.61;78.52
65040;HTU21D;51606;45.000;38.612;2023-03-19T08:12:30;9.62;78.51
65040;HTU21D;51606;45.000;38.612;2023-03-19T08:14:58;9.65;78.48
65040;HTU21D;51606;45.000;38.612;2023-03-19T08:17:24;9.65;78.46
65040;HTU21D;51606;45.000;38.612;2023-03-19T08:19:51;9.64;78.45
65040;HTU21D;51606;45.000;38.612;2023-03-19T08:22:18;9.67;78.45
65040;HTU21D;51606;45.000;38.612;2023-03-19T08:24:44;9.66;78.49
65040;HTU21D;51606;45.000;38.612;2023-03-19T08:27:10;9.67;78.55
65040;HTU21D;51606;45.000;38.612;2023-03-19T08:29:37;9.71;78.49
65040;HTU21D;51606;45.000;38.612;2023-03-19T08:32:03;9.74;78.45
65040;HTU21D;51606;45.000;38.612;2023-03-19T08:34:30;9.80;78.37
65040;HTU21D;51606;45.000;38.612;2023-03-19T08:36:57;9.88;78.24
65040;HTU21D;51606;45.000;38.612;2023-03-19T08:39:23;9.93;78.26
65040;HTU21D;51606;45.000;38.612;2023-03-19T08:41:50;10.00;78.12
65040;HTU21D;51606;45.000;38.612;2023-03-19T08:44:16;10.07;78.00
65040;HTU21D;51606;45.000;38.612;2023-03-19T08:46:42;10.14;78.03
65040;HTU21D;51606;45.000;38.612;2023-03-19T08:49:09;10.23;77.90
65040;HTU21D;51606;45.000;38.612;2023-03-19T08:51:35;10.31;77.79
65040;HTU21D;51606;45.000;38.612;2023-03-19T08:54:02;10.29;77.69
65040;HTU21D;51606;45.000;38.612;2023-03-19T08:56:28;10.33;77.82
65040;HTU21D;51606;45.000;38.612;2023-03-19T08:58:56;10.40;77.80
65040;HTU21D;51606;45.000;38.612;2023-03-19T09:01:22;10.51;77.60
65040;HTU21D;51606;45.000;38.612;2023-03-19T09:03:49;10.58;77.48
65040;HTU21D;51606;45.000;38.612;2023-03-19T09:06:15;10.60;77.48
65040;HTU21D;51606;45.000;38.612;2023-03-19T09:08:42;10.59;77.43
65040;HTU21D;51606;45.000;38.612;2023-03-19T09:11:09;10.54;77.64
65040;HTU21D;51606;45.000;38.612;2023-03-19T09:13:35;10.59;77.69
65040;HTU21D;51606;45.000;38.612;2023-03-19T09:16:02;10.65;77.60
65040;HTU21D;51606;45.000;38.612;2023-03-19T09:18:29;10.66;77.51
65040;HTU21D;51606;45.000;38.612;2023-03-19T09:20:56;10.68;77.59
65040;HTU21D;51606;45.000;38.612;2023-03-19T09:23:22;10.72;77.57
65040;HTU21D;51606;45.000;38.612;2023-03-19T09:25:49;10.79;77.44
65040;HTU21D;51606;45.000;38.612;2023-03-19T09:28:16;10.85;77.30
65040;HTU21D;51606;45.000;38.612;2023-03-19T09:30:45;10.93;77.24
65040;HTU21D;51606;45.000;38.612;2023-03-19T09:33:13;11.02;77.06
65040;HTU21D;51606;45.000;38.612;2023-03-19T09:35:40;11.11;76.86
65040;HTU21D;51606;45.000;38.612;2023-03-19T09:38:07;11.18;76.71
65040;HTU21D;51606;45.000;38.612;2023-03-19T09:40:37;11.25;76.62
65040;HTU21D;51606;45.000;38.612;2023-03-19T09:43:25;11.29;76.56
65040;HTU21D;51606;45.000;38.612;2023-03-19T09:45:54;11.30;76.58
65040;HTU21D;51606;45.000;38.612;2023-03-19T09:48:36;11.29;76.61
65040;HTU21D;51606;45.000;38.612;2023-03-19T09:51:06;11.29;76.64
65040;HTU21D;51606;45.000;38.612;2023-03-19T09:53:57;11.32;76.49
65040;HTU21D;51606;45.000;38.612;2023-03-19T09:56:25;11.39;76.44
65040;HTU21D;51606;45.000;38.612;2023-03-19T09:58:52;11.36;76.46
65040;HTU21D;51606;45.000;38.612;2023-03-19T10:01:33;11.34;76.58
65040;HTU21D;51606;45.000;38.612;2023-03-19T10:04:12;11.40;76.58
65040;HTU21D;51606;45.000;38.612;2023-03-19T10:06:43;11.49;76.39
65040;HTU21D;51606;45.000;38.612;2023-03-19T10:12:20;11.62;76.02
65040;HTU21D;51606;45.000;38.612;2023-03-19T10:15:16;11.64;75.99
65040;HTU21D;51606;45.000;38.612;2023-03-19T10:18:01;11.69;75.95
65040;HTU21D;51606;45.000;38.612;2023-03-19T10:24:24;11.82;75.69
65040;HTU21D;51606;45.000;38.612;2023-03-19T10:26:32;11.85;75.67
65040;HTU21D;51606;45.000;38.612;2023-03-19T10:34:32;11.89;75.59
65040;HTU21D;51606;45.000;38.612;2023-03-19T10:37:03;11.91;75.54
65040;HTU21D;51606;45.000;38.612;2023-03-19T10:39:32;11.91;75.48
65040;HTU21D;51606;45.000;38.612;2023-03-19T10:45:01;11.94;75.41
65040;HTU21D;51606;45.000;38.612;2023-03-19T10:47:36;11.94;75.41
65040;HTU21D;51606;45.000;38.612;2023-03-19T10:50:04;11.96;75.34
65040;HTU21D;51606;45.000;38.612;2023-03-19T10:52:34;11.92;75.44
65040;HTU21D;51606;45.000;38.612;2023-03-19T10:55:13;11.90;75.50
65040;HTU21D;51606;45.000;38.612;2023-03-19T10:57:45;11.89;75.47
65040;HTU21D;51606;45.000;38.612;2023-03-19T11:00:22;11.84;75.45
65040;HTU21D;51606;45.000;38.612;2023-03-19T11:02:51;11.81;75.56
65040;HTU21D;51606;45.000;38.612;2023-03-19T11:05:26;11.83;75.47
65040;HTU21D;51606;45.000;38.612;2023-03-19T11:07:57;11.86;75.26
65040;HTU21D;51606;45.000;38.612;2023-03-19T11:10:26;11.88;75.37
65040;HTU21D;51606;45.000;38.612;2023-03-19T11:13:02;11.89;75.24
65040;HTU21D;51606;45.000;38.612;2023-03-19T11:15:34;11.86;75.24
65040;HTU21D;51606;45.000;38.612;2023-03-19T11:26:41;11.68;75.44
65040;HTU21D;51606;45.000;38.612;2023-03-19T11:29:09;11.68;75.53
65040;HTU21D;51606;45.000;38.612;2023-03-19T11:31:53;11.68;75.45
65040;HTU21D;51606;45.000;38.612;2023-03-19T11:34:35;11.67;75.41
65040;HTU21D;51606;45.000;38.612;2023-03-19T11:40:15;11.58;75.42
65040;HTU21D;51606;45.000;38.612;2023-03-19T11:43:05;11.55;75.50
65040;HTU21D;51606;45.000;38.612;2023-03-19T11:45:59;11.53;75.57
65040;HTU21D;51606;45.000;38.612;2023-03-19T11:48:48;11.54;75.54
65040;HTU21D;51606;45.000;38.612;2023-03-19T11:51:29;11.48;75.51
65040;HTU21D;51606;45.000;38.612;2023-03-19T11:57:00;11.32;75.76
65040;HTU21D;51606;45.000;38.612;2023-03-19T12:05:48;11.22;75.87
65040;HTU21D;51606;45.000;38.612;2023-03-19T12:08:28;11.22;75.86
65040;HTU21D;51606;45.000;38.612;2023-03-19T12:19:03;11.07;75.95
65040;HTU21D;51606;45.000;38.612;2023-03-19T12:21:52;11.02;76.00
65040;HTU21D;51606;45.000;38.612;2023-03-19T12:33:17;10.97;76.10
65040;HTU21D;51606;45.000;38.612;2023-03-19T12:35:47;11.01;76.05
65040;HTU21D;51606;45.000;38.612;2023-03-19T12:41:09;11.00;76.01
65040;HTU21D;51606;45.000;38.612;2023-03-19T12:46:43;11.02;76.04
65040;HTU21D;51606;45.000;38.612;2023-03-19T12:49:22;11.01;76.07
65040;HTU21D;51606;45.000;38.612;2023-03-19T12:52:28;11.02;76.02
65040;HTU21D;51606;45.000;38.612;2023-03-19T13:00:16;10.92;76.18
65040;HTU21D;51606;45.000;38.612;2023-03-19T13:02:57;10.92;76.24
65040;HTU21D;51606;45.000;38.612;2023-03-19T13:05:51;10.92;76.24
65040;HTU21D;51606;45.000;38.612;2023-03-19T13:08:31;10.93;76.21
65040;HTU21D;51606;45.000;38.612;2023-03-19T13:11:03;10.89;76.24
65040;HTU21D;51606;45.000;38.612;2023-03-19T13:13:55;10.90;76.31
65040;HTU21D;51606;45.000;38.612;2023-03-19T13:16:56;10.87;76.35
65040;HTU21D;51606;45.000;38.612;2023-03-19T13:19:44;10.90;76.30
65040;HTU21D;51606;45.000;38.612;2023-03-19T13:22:34;10.95;76.28
65040;HTU21D;51606;45.000;38.612;2023-03-19T13:25:03;10.97;76.20
65040;HTU21D;51606;45.000;38.612;2023-03-19T13:27:34;11.02;76.14
65040;HTU21D;51606;45.000;38.612;2023-03-19T13:32:49;11.08;76.05
65040;HTU21D;51606;45.000;38.612;2023-03-19T13:35:39;11.10;76.03
65040;HTU21D;51606;45.000;38.612;2023-03-19T13:38:21;11.11;76.05
65040;HTU21D;51606;45.000;38.612;2023-03-19T13:40:54;11.33;76.07
65040;HTU21D;51606;45.000;38.612;2023-03-19T13:46:25;12.12;74.13
65040;HTU21D;51606;45.000;38.612;2023-03-19T13:48:52;12.20;73.90
65040;HTU21D;51606;45.000;38.612;2023-03-19T13:54:05;12.16;74.01
65040;HTU21D;51606;45.000;38.612;2023-03-19T13:57:20;12.11;74.09
65040;HTU21D;51606;45.000;38.612;2023-03-19T13:59:52;12.01;74.31
65040;HTU21D;51606;45.000;38.612;2023-03-19T14:05:06;11.93;74.49
65040;HTU21D;51606;45.000;38.612;2023-03-19T14:07:38;11.99;74.37
65040;HTU21D;51606;45.000;38.612;2023-03-19T14:10:16;11.97;74.31
65040;HTU21D;51606;45.000;38.612;2023-03-19T14:12:45;11.91;74.32
65040;HTU21D;51606;45.000;38.612;2023-03-19T14:15:13;11.85;74.46
65040;HTU21D;51606;45.000;38.612;2023-03-19T14:17:44;11.76;74.61
65040;HTU21D;51606;45.000;38.612;2023-03-19T14:26:04;11.52;74.99
65040;HTU21D;51606;45.000;38.612;2023-03-19T14:29:03;11.38;75.25
65040;HTU21D;51606;45.000;38.612;2023-03-19T14:31:48;11.27;75.45
65040;HTU21D;51606;45.000;38.612;2023-03-19T14:34:26;11.15;75.66
65040;HTU21D;51606;45.000;38.612;2023-03-19T14:39:54;11.05;75.80
65040;HTU21D;51606;45.000;38.612;2023-03-19T14:53:45;10.88;75.89
65040;HTU21D;51606;45.000;38.612;2023-03-19T14:56:18;10.86;75.90
65040;HTU21D;51606;45.000;38.612;2023-03-19T14:58:54;10.84;75.89
65040;HTU21D;51606;45.000;38.612;2023-03-19T15:01:22;10.83;75.89
65040;HTU21D;51606;45.000;38.612;2023-03-19T15:03:58;10.78;75.92
65040;HTU21D;51606;45.000;38.612;2023-03-19T15:06:31;10.74;76.02
65040;HTU21D;51606;45.000;38.612;2023-03-19T15:08:59;10.69;76.09
65040;HTU21D;51606;45.000;38.612;2023-03-19T15:12:25;10.65;76.16
65040;HTU21D;51606;45.000;38.612;2023-03-19T15:14:30;10.62;76.19
65040;HTU21D;51606;45.000;38.612;2023-03-19T15:19:30;10.51;76.29
65040;HTU21D;51606;45.000;38.612;2023-03-19T15:24:31;10.46;76.36
65040;HTU21D;51606;45.000;38.612;2023-03-19T15:26:57;10.45;76.41
65040;HTU21D;51606;45.000;38.612;2023-03-19T15:29:33;10.43;76.43
65040;HTU21D;51606;45.000;38.612;2023-03-19T15:31:59;10.40;76.47
65040;HTU21D;51606;45.000;38.612;2023-03-19T15:34:27;10.39;76.49
65040;HTU21D;51606;45.000;38.612;2023-03-19T15:39:25;10.35;76.52
65040;HTU21D;51606;45.000;38.612;2023-03-19T15:41:55;10.33;76.55
65040;HTU21D;51606;45.000;38.612;2023-03-19T15:44:31;10.28;76.60
65040;HTU21D;51606;45.000;38.612;2023-03-19T15:47:01;10.27;76.64
65040;HTU21D;51606;45.000;38.612;2023-03-19T15:49:33;10.23;76.68
65040;HTU21D;51606;45.000;38.612;2023-03-19T15:52:08;10.23;76.68
65040;HTU21D;51606;45.000;38.612;2023-03-19T15:54:36;10.20;76.67
65040;HTU21D;51606;45.000;38.612;2023-03-19T15:57:05;10.19;76.71
65040;HTU21D;51606;45.000;38.612;2023-03-19T15:59:32;10.16;76.72
65040;HTU21D;51606;45.000;38.612;2023-03-19T16:02:01;10.15;76.76
65040;HTU21D;51606;45.000;38.612;2023-03-19T16:04:29;10.14;76.77
65040;HTU21D;51606;45.000;38.612;2023-03-19T16:06:58;10.13;76.76
65040;HTU21D;51606;45.000;38.612;2023-03-19T16:11:55;10.10;76.79
65040;HTU21D;51606;45.000;38.612;2023-03-19T16:17:13;10.08;76.82
65040;HTU21D;51606;45.000;38.612;2023-03-19T16:22:38;10.07;76.86
65040;HTU21D;51606;45.000;38.612;2023-03-19T16:25:13;10.06;76.85
65040;HTU21D;51606;45.000;38.612;2023-03-19T16:27:40;10.06;76.91
65040;HTU21D;51606;45.000;38.612;2023-03-19T16:30:25;10.05;76.94
65040;HTU21D;51606;45.000;38.612;2023-03-19T16:33:00;10.04;76.92
65040;HTU21D;51606;45.000;38.612;2023-03-19T16:35:28;10.03;76.95
65040;HTU21D;51606;45.000;38.612;2023-03-19T16:38:15;10.03;76.96
65040;HTU21D;51606;45.000;38.612;2023-03-19T16:40:45;10.04;76.95
65040;HTU21D;51606;45.000;38.612;2023-03-19T16:43:22;10.01;76.95
65040;HTU21D;51606;45.000;38.612;2023-03-19T16:45:51;10.01;76.97
65040;HTU21D;51606;45.000;38.612;2023-03-19T16:48:17;10.00;76.95
65040;HTU21D;51606;45.000;38.612;2023-03-19T16:50:44;10.00;77.01
65040;HTU21D;51606;45.000;38.612;2023-03-19T16:53:24;10.00;77.05
65040;HTU21D;51606;45.000;38.612;2023-03-19T16:55:52;9.98;77.12
65040;HTU21D;51606;45.000;38.612;2023-03-19T17:00:58;9.97;77.18
65040;HTU21D;51606;45.000;38.612;2023-03-19T17:03:24;9.99;77.18
65040;HTU21D;51606;45.000;38.612;2023-03-19T17:05:51;10.00;77.16
65040;HTU21D;51606;45.000;38.612;2023-03-19T17:08:17;10.01;77.15
65040;HTU21D;51606;45.000;38.612;2023-03-19T17:10:49;10.01;77.14
65040;HTU21D;51606;45.000;38.612;2023-03-19T17:13:28;10.04;77.11
65040;HTU21D;51606;45.000;38.612;2023-03-19T17:15:58;10.03;77.11
65040;HTU21D;51606;45.000;38.612;2023-03-19T17:18:34;10.03;77.13
65040;HTU21D;51606;45.000;38.612;2023-03-19T17:21:02;9.99;77.26
65040;HTU21D;51606;45.000;38.612;2023-03-19T17:23:31;9.99;77.22
65040;HTU21D;51606;45.000;38.612;2023-03-19T17:25:59;9.98;77.23
65040;HTU21D;51606;45.000;38.612;2023-03-19T17:39:13;9.86;77.47
65040;HTU21D;51606;45.000;38.612;2023-03-19T17:41:39;9.85;77.48
65040;HTU21D;51606;45.000;38.612;2023-03-19T17:44:06;9.83;77.53
65040;HTU21D;51606;45.000;38.612;2023-03-19T17:46:38;9.82;77.58
65040;HTU21D;51606;45.000;38.612;2023-03-19T17:49:09;9.80;77.63
65040;HTU21D;51606;45.000;38.612;2023-03-19T17:51:37;9.80;77.69
65040;HTU21D;51606;45.000;38.612;2023-03-19T17:54:08;9.78;77.66
65040;HTU21D;51606;45.000;38.612;2023-03-19T17:56:35;9.78;77.63
65040;HTU21D;51606;45.000;38.612;2023-03-19T17:59:01;9.79;77.65
65040;HTU21D;51606;45.000;38.612;2023-03-19T18:01:28;9.80;77.66
65040;HTU21D;51606;45.000;38.612;2023-03-19T18:03:56;9.79;77.70
65040;HTU21D;51606;45.000;38.612;2023-03-19T18:06:25;9.79;77.70
65040;HTU21D;51606;45.000;38.612;2023-03-19T18:08:54;9.79;77.76
65040;HTU21D;51606;45.000;38.612;2023-03-19T18:11:20;9.80;77.73
65040;HTU21D;51606;45.000;38.612;2023-03-19T18:13:46;9.80;77.76
65040;HTU21D;51606;45.000;38.612;2023-03-19T18:16:31;9.80;77.77
65040;HTU21D;51606;45.000;38.612;2023-03-19T18:19:00;9.80;77.81
65040;HTU21D;51606;45.000;38.612;2023-03-19T18:21:27;9.82;77.81
65040;HTU21D;51606;45.000;38.612;2023-03-19T18:23:54;9.80;77.78
65040;HTU21D;51606;45.000;38.612;2023-03-19T18:26:23;9.79;77.84
65040;HTU21D;51606;45.000;38.612;2023-03-19T18:28:49;9.79;77.81
65040;HTU21D;51606;45.000;38.612;2023-03-19T18:31:21;9.77;77.85
65040;HTU21D;51606;45.000;38.612;2023-03-19T18:33:52;9.78;77.94
